createdAt,value
2019-01-15T00:00:23.903Z,2.30
2019-01-15T00:03:39.271Z,2.35
2019-01-15T00:06:54.203Z,2.44
2019-01-15T00:10:11.204Z,2.43
2019-01-15T00:13:26.322Z,2.39
2019-01-15T00:16:42.396Z,2.35
2019-01-15T00:19:57.878Z,2.24
2019-01-15T00:23:13.314Z,2.19
2019-01-15T00:26:28.779Z,2.27
2019-01-15T00:29:44.365Z,2.26
2019-01-15T00:33:02.654Z,2.25
2019-01-15T00:36:18.016Z,2.18
2019-01-15T00:39:33.478Z,2.17
2019-01-15T00:42:48.397Z,2.13
2019-01-15T00:46:03.570Z,2.19
2019-01-15T00:49:20.196Z,2.18
2019-01-15T00:52:35.451Z,2.21
2019-01-15T00:55:50.957Z,2.26
2019-01-15T00:59:06.525Z,2.14
2019-01-15T01:02:21.720Z,2.20
2019-01-15T01:05:36.998Z,2.23
2019-01-15T01:08:52.503Z,2.21
2019-01-15T01:12:08.231Z,2.19
2019-01-15T01:15:23.357Z,2.11
2019-01-15T01:18:39.037Z,2.12
2019-01-15T01:21:54.591Z,2.08
2019-01-15T01:25:09.624Z,2.08
2019-01-15T01:28:24.993Z,2.05
2019-01-15T01:31:40.234Z,2.01
2019-01-15T01:34:56.259Z,1.98
2019-01-15T01:38:11.687Z,1.98
2019-01-15T01:41:27.121Z,1.97
2019-01-15T01:44:42.383Z,1.93
2019-01-15T01:47:58.439Z,1.79
2019-01-15T01:51:13.790Z,1.70
2019-01-15T01:54:29.316Z,1.74
2019-01-15T01:57:44.377Z,1.76
2019-01-15T02:00:59.763Z,1.71
2019-01-15T02:04:15.113Z,1.68
2019-01-15T02:07:30.150Z,1.77
2019-01-15T02:10:45.507Z,1.91
2019-01-15T02:14:00.746Z,1.88
2019-01-15T02:17:16.291Z,1.86
2019-01-15T02:20:31.457Z,1.83
2019-01-15T02:23:46.920Z,1.85
2019-01-15T02:30:41.876Z,2.16
2019-01-15T02:33:57.432Z,2.13
2019-01-15T02:37:12.806Z,2.13
2019-01-15T02:40:28.131Z,2.12
2019-01-15T02:43:43.312Z,2.19
2019-01-15T02:46:58.636Z,2.17
2019-01-15T02:50:13.855Z,2.16
2019-01-15T02:53:29.047Z,2.17
2019-01-15T02:56:44.401Z,2.10
2019-01-15T02:59:59.743Z,2.08
2019-01-15T03:03:14.887Z,2.03
2019-01-15T03:06:30.344Z,1.97
2019-01-15T03:09:46.608Z,1.91
2019-01-15T03:13:01.869Z,1.84
2019-01-15T03:16:17.014Z,1.77
2019-01-15T03:19:32.679Z,1.63
2019-01-15T03:22:47.790Z,1.66
2019-01-15T03:26:03.076Z,1.60
2019-01-15T03:29:19.183Z,1.45
2019-01-15T03:32:34.637Z,1.49
2019-01-15T03:35:49.756Z,1.58
2019-01-15T03:39:08.419Z,1.57
2019-01-15T03:42:23.731Z,1.60
2019-01-15T03:45:38.877Z,1.61
2019-01-15T03:48:54.256Z,1.67
2019-01-15T03:52:09.796Z,1.73
2019-01-15T03:55:24.822Z,1.72
2019-01-15T03:58:39.984Z,1.88
2019-01-15T04:01:55.443Z,2.02
2019-01-15T04:05:11.717Z,2.00
2019-01-15T04:08:27.675Z,1.85
2019-01-15T04:11:44.034Z,1.90
2019-01-15T04:14:59.212Z,2.06
2019-01-15T04:18:14.656Z,1.94
2019-01-15T04:21:30.111Z,2.00
2019-01-15T04:24:46.184Z,2.18
2019-01-15T04:28:01.330Z,2.30
2019-01-15T04:31:17.226Z,2.29
2019-01-15T04:34:32.442Z,2.36
2019-01-15T04:37:47.609Z,2.37
2019-01-15T04:41:03.057Z,2.40
2019-01-15T04:44:18.728Z,2.38
2019-01-15T04:47:33.987Z,2.38
2019-01-15T04:50:49.316Z,2.45
2019-01-15T04:54:05.787Z,2.46
2019-01-15T04:57:21.798Z,2.38
2019-01-15T05:00:37.221Z,2.42
2019-01-15T05:03:51.871Z,2.40
2019-01-15T05:07:07.511Z,2.44
2019-01-15T05:10:23.004Z,2.50
2019-01-15T05:13:38.221Z,2.49
2019-01-15T05:16:54.023Z,2.45
2019-01-15T05:20:11.180Z,2.41
2019-01-15T05:23:26.635Z,2.34
2019-01-15T05:26:41.790Z,2.38
2019-01-15T05:29:57.037Z,2.50
2019-01-15T05:33:13.125Z,2.56
2019-01-15T05:36:28.255Z,2.58
2019-01-15T05:39:43.734Z,2.62
2019-01-15T05:42:59.155Z,2.58
2019-01-15T05:46:14.417Z,2.63
2019-01-15T05:49:30.389Z,2.62
2019-01-15T05:52:45.702Z,2.63
2019-01-15T05:56:01.802Z,2.62
2019-01-15T05:59:17.170Z,2.68
2019-01-15T06:02:33.130Z,2.76
2019-01-15T06:05:48.276Z,2.72
2019-01-15T06:09:03.844Z,2.76
2019-01-15T06:12:18.988Z,2.70
2019-01-15T06:15:34.882Z,2.60
2019-01-15T06:18:50.285Z,2.48
2019-01-15T06:22:05.650Z,2.38
2019-01-15T06:25:20.896Z,2.39
2019-01-15T06:28:36.348Z,2.29
2019-01-15T06:31:51.515Z,2.39
2019-01-15T06:35:07.074Z,2.40
2019-01-15T06:38:22.210Z,2.36
2019-01-15T06:41:37.360Z,2.41
2019-01-15T06:44:52.394Z,2.39
2019-01-15T06:48:08.056Z,2.42
2019-01-15T06:51:23.921Z,2.52
2019-01-15T06:54:39.993Z,2.57
2019-01-15T06:57:55.551Z,2.52
2019-01-15T07:01:11.678Z,2.59
2019-01-15T07:04:27.182Z,2.69
2019-01-15T07:07:42.422Z,2.72
2019-01-15T07:10:57.782Z,2.74
2019-01-15T07:14:12.936Z,2.83
2019-01-15T07:17:28.112Z,2.80
2019-01-15T07:20:44.546Z,2.77
2019-01-15T07:23:59.683Z,2.85
2019-01-15T07:27:15.262Z,2.95
2019-01-15T07:30:51.182Z,2.90
2019-01-15T07:34:06.740Z,2.85
2019-01-15T07:37:22.003Z,2.93
2019-01-15T07:40:37.347Z,2.79
2019-01-15T07:43:52.577Z,2.78
2019-01-15T07:47:07.863Z,2.76
2019-01-15T07:50:24.036Z,2.82
2019-01-15T07:53:40.185Z,2.83
2019-01-15T07:56:55.538Z,2.87
2019-01-15T08:00:14.273Z,2.90
2019-01-15T08:03:29.932Z,3.01
2019-01-15T08:06:45.025Z,3.10
2019-01-15T08:10:00.467Z,3.18
2019-01-15T08:13:16.002Z,3.10
2019-01-15T08:16:31.858Z,3.24
2019-01-15T08:19:47.153Z,3.27
2019-01-15T08:23:03.004Z,3.41
2019-01-15T08:26:18.140Z,3.49
2019-01-15T08:29:33.380Z,3.57
2019-01-15T08:32:48.827Z,3.66
2019-01-15T08:36:04.201Z,3.65
2019-01-15T08:39:20.087Z,3.69
2019-01-15T08:42:35.501Z,3.80
2019-01-15T08:45:51.424Z,3.76
2019-01-15T08:49:09.252Z,3.84
2019-01-15T08:52:24.953Z,3.92
2019-01-15T08:55:40.394Z,4.17
2019-01-15T08:58:56.662Z,4.21
2019-01-15T09:02:12.021Z,4.25
2019-01-15T09:05:27.792Z,4.15
2019-01-15T09:08:43.032Z,4.20
2019-01-15T09:11:58.803Z,4.40
2019-01-15T09:15:15.369Z,4.52
2019-01-15T09:18:31.345Z,4.53
2019-01-15T09:21:46.807Z,4.60
2019-01-15T09:25:01.255Z,4.67
2019-01-15T09:28:16.582Z,4.70
2019-01-15T09:31:32.081Z,4.70
2019-01-15T09:34:47.313Z,4.46
2019-01-15T09:38:03.671Z,4.53
2019-01-15T09:41:18.915Z,4.57
2019-01-15T09:44:34.456Z,4.59
2019-01-15T09:47:56.284Z,4.69
2019-01-15T09:51:10.619Z,4.63
2019-01-15T09:54:26.079Z,4.77
2019-01-15T09:57:41.613Z,4.82
2019-01-15T10:00:57.296Z,5.06
2019-01-15T10:04:12.734Z,5.20
2019-01-15T10:07:28.804Z,5.34
2019-01-15T10:10:44.182Z,5.55
2019-01-15T10:13:59.310Z,5.61
2019-01-15T10:17:14.535Z,5.80
2019-01-15T10:20:29.988Z,5.95
2019-01-15T10:23:45.908Z,6.09
2019-01-15T10:27:01.240Z,6.26
2019-01-15T10:30:21.515Z,6.41
2019-01-15T10:33:42.986Z,6.17
2019-01-15T10:36:55.774Z,6.30
2019-01-15T10:40:11.766Z,6.20
2019-01-15T10:43:27.704Z,6.36
2019-01-15T10:46:42.092Z,6.36
2019-01-15T10:49:57.398Z,6.38
2019-01-15T10:53:12.754Z,6.15
2019-01-15T10:56:28.421Z,6.15
2019-01-15T10:59:43.892Z,6.40
2019-01-15T11:02:59.643Z,6.74
2019-01-15T11:06:15.192Z,6.74
2019-01-15T11:09:31.069Z,6.62
2019-01-15T11:12:46.413Z,6.87
2019-01-15T11:16:02.066Z,7.00
2019-01-15T11:19:17.945Z,6.69
2019-01-15T11:22:33.714Z,6.36
2019-01-15T11:25:48.960Z,6.58
2019-01-15T11:29:04.398Z,7.08
2019-01-15T11:32:19.862Z,7.29
2019-01-15T11:35:35.127Z,7.23
2019-01-15T11:38:50.476Z,7.21
2019-01-15T11:42:06.239Z,7.24
2019-01-15T11:45:21.794Z,7.38
2019-01-15T11:48:37.161Z,7.30
2019-01-15T11:51:52.435Z,7.19
2019-01-15T11:55:08.016Z,7.01
2019-01-15T11:58:23.506Z,6.95
2019-01-15T12:02:03.463Z,7.10
2019-01-15T12:05:35.513Z,7.11
2019-01-15T12:09:08.323Z,6.84
2019-01-15T12:12:47.397Z,6.79
2019-01-15T12:16:20.222Z,6.84
2019-01-15T12:19:55.967Z,7.07
2019-01-15T12:23:22.547Z,7.04
2019-01-15T12:26:54.824Z,7.07
2019-01-15T12:30:22.031Z,7.02
2019-01-15T12:33:56.463Z,6.95
2019-01-15T12:37:49.055Z,6.96
2019-01-15T12:41:37.842Z,7.12
2019-01-15T12:45:07.139Z,7.05
2019-01-15T12:48:40.087Z,7.28
2019-01-15T12:52:14.368Z,7.15
2019-01-15T12:56:06.598Z,7.12
2019-01-15T12:59:39.948Z,7.11
2019-01-15T13:03:11.803Z,7.03
2019-01-15T13:06:45.016Z,7.15
2019-01-15T13:10:20.979Z,7.08
2019-01-15T13:13:57.986Z,7.11
2019-01-15T13:17:24.394Z,7.20
2019-01-15T13:20:50.076Z,7.12
2019-01-15T13:24:27.137Z,7.15
2019-01-15T13:28:00.210Z,7.08
2019-01-15T13:31:45.481Z,7.03
2019-01-15T13:35:19.845Z,7.02
2019-01-15T13:38:52.723Z,7.06
2019-01-15T13:42:21.387Z,6.92
2019-01-15T13:46:00.850Z,6.98
2019-01-15T13:49:29.050Z,7.10
2019-01-15T13:52:52.435Z,7.08
2019-01-15T13:56:25.207Z,6.74
2019-01-15T13:59:57.362Z,6.53
2019-01-15T14:03:20.409Z,6.64
2019-01-15T14:06:59.618Z,6.46
2019-01-15T14:10:36.426Z,6.40
2019-01-15T14:14:13.730Z,6.35
2019-01-15T14:17:47.689Z,6.49
2019-01-15T14:21:30.296Z,6.63
2019-01-15T14:25:02.031Z,6.67
2019-01-15T14:28:36.579Z,6.68
2019-01-15T14:32:05.148Z,6.80
2019-01-15T14:35:33.291Z,6.62
2019-01-15T14:39:05.508Z,6.57
2019-01-15T14:42:45.986Z,6.53
2019-01-15T14:46:26.683Z,6.52
2019-01-15T14:50:00.035Z,6.41
2019-01-15T14:53:45.255Z,6.25
2019-01-15T14:57:14.983Z,6.22
2019-01-15T15:00:46.620Z,6.18
2019-01-15T15:04:10.831Z,6.07
2019-01-15T15:07:56.387Z,6.15
2019-01-15T15:11:29.320Z,6.04
2019-01-15T15:14:55.393Z,6.02
2019-01-15T15:18:21.436Z,5.86
2019-01-15T15:21:51.296Z,6.02
2019-01-15T15:25:18.127Z,6.03
2019-01-15T15:28:55.511Z,5.87
2019-01-15T15:32:44.328Z,5.97
2019-01-15T15:36:17.924Z,5.88
2019-01-15T15:39:51.336Z,5.79
2019-01-15T15:43:24.777Z,5.92
2019-01-15T15:46:56.767Z,5.89
2019-01-15T15:50:21.857Z,5.75
2019-01-15T15:53:50.865Z,5.74
2019-01-15T15:57:34.451Z,5.83
2019-01-15T16:01:13.734Z,5.75
2019-01-15T16:04:47.965Z,5.77
2019-01-15T16:08:19.901Z,5.75
2019-01-15T16:11:51.716Z,5.64
2019-01-15T16:15:16.596Z,5.67
2019-01-15T16:18:51.322Z,5.67
2019-01-15T16:22:23.531Z,5.60
2019-01-15T16:25:56.700Z,5.55
2019-01-15T16:29:28.484Z,5.56
2019-01-15T16:33:01.504Z,5.53
2019-01-15T16:36:40.522Z,5.51
2019-01-15T16:40:14.528Z,5.66
2019-01-15T16:43:57.557Z,5.68
2019-01-15T16:47:18.953Z,5.74
2019-01-15T16:50:42.224Z,5.72
2019-01-15T16:54:19.793Z,5.78
2019-01-15T16:58:11.495Z,5.87
2019-01-15T17:01:56.612Z,5.81
2019-01-15T17:05:45.105Z,5.81
2019-01-15T17:09:18.319Z,5.54
2019-01-15T17:12:53.348Z,5.53
2019-01-15T17:16:33.313Z,5.56
2019-01-15T17:20:00.242Z,5.60
2019-01-15T17:23:32.486Z,5.67
2019-01-15T17:27:17.742Z,5.64
2019-01-15T17:30:44.343Z,5.64
2019-01-15T17:34:34.195Z,5.64
2019-01-15T17:38:10.055Z,5.74
2019-01-15T17:41:46.098Z,5.74
2019-01-15T17:45:19.128Z,5.78
2019-01-15T17:49:01.424Z,5.83
2019-01-15T17:52:34.793Z,5.78
2019-01-15T17:56:02.193Z,5.77
2019-01-15T17:59:41.710Z,5.80
2019-01-15T18:03:10.920Z,5.82
2019-01-15T18:06:40.127Z,5.76
2019-01-15T18:10:12.001Z,5.76
2019-01-15T18:14:01.650Z,5.75
2019-01-15T18:17:37.918Z,5.74
2019-01-15T18:21:14.989Z,5.68
2019-01-15T18:24:57.402Z,5.78
2019-01-15T18:28:30.250Z,5.79
2019-01-15T18:32:04.470Z,5.80
2019-01-15T18:35:50.478Z,5.73
2019-01-15T18:39:24.730Z,5.76
2019-01-15T18:43:14.850Z,5.72
2019-01-15T18:46:57.863Z,5.68
2019-01-15T18:50:25.892Z,5.63
2019-01-15T18:54:08.444Z,5.72
2019-01-15T18:57:50.715Z,5.73
2019-01-15T19:01:33.402Z,5.62
2019-01-15T19:05:15.692Z,5.51
2019-01-15T19:08:52.971Z,5.56
2019-01-15T19:12:32.051Z,5.51
2019-01-15T19:16:05.063Z,5.57
2019-01-15T19:19:47.602Z,5.63
2019-01-15T19:23:28.333Z,5.63
2019-01-15T19:27:07.688Z,5.74
2019-01-15T19:30:41.130Z,5.82
2019-01-15T19:34:13.113Z,5.70
2019-01-15T19:37:46.355Z,5.64
2019-01-15T19:41:25.521Z,5.61
2019-01-15T19:45:11.642Z,5.60
2019-01-15T19:48:41.074Z,5.72
2019-01-15T19:52:14.640Z,5.72
2019-01-15T19:55:43.940Z,5.58
2019-01-15T19:59:18.889Z,5.63
2019-01-15T20:02:45.720Z,5.74
2019-01-15T20:06:18.689Z,5.71
2019-01-15T20:09:51.116Z,5.68
2019-01-15T20:13:27.138Z,5.56
2019-01-15T20:17:18.236Z,5.54
2019-01-15T20:20:53.840Z,5.55
2019-01-15T20:24:26.911Z,5.45
2019-01-15T20:27:59.788Z,5.48
2019-01-15T20:31:45.373Z,5.44
2019-01-15T20:35:16.572Z,5.55
2019-01-15T20:38:49.722Z,5.53
2019-01-15T20:42:17.528Z,5.61
2019-01-15T20:45:59.881Z,5.51
2019-01-15T20:49:31.716Z,5.46
2019-01-15T20:53:04.872Z,5.52
2019-01-15T20:56:42.394Z,5.50
2019-01-15T21:00:10.475Z,5.61
2019-01-15T21:03:52.590Z,5.72
2019-01-15T21:07:32.401Z,5.74
2019-01-15T21:11:04.445Z,5.62
2019-01-15T21:14:37.584Z,5.52
2019-01-15T21:18:10.273Z,5.32
2019-01-15T21:21:54.088Z,5.38
2019-01-15T21:25:37.606Z,5.42
2019-01-15T21:29:14.806Z,5.50
2019-01-15T21:33:00.279Z,5.43
2019-01-15T21:36:33.335Z,5.37
2019-01-15T21:40:15.319Z,5.41
2019-01-15T21:43:42.817Z,5.38
2019-01-15T21:47:29.246Z,5.44
2019-01-15T21:50:55.784Z,5.44
2019-01-15T21:54:37.788Z,5.34
2019-01-15T21:58:14.804Z,5.28
2019-01-15T22:01:40.395Z,5.34
2019-01-15T22:05:17.587Z,5.37
2019-01-15T22:08:49.411Z,5.24
2019-01-15T22:12:16.391Z,5.35
2019-01-15T22:15:48.296Z,5.32
2019-01-15T22:19:28.373Z,5.33
2019-01-15T22:23:00.422Z,5.33
2019-01-15T22:26:28.115Z,5.36
2019-01-15T22:29:58.279Z,5.19
2019-01-15T22:33:30.895Z,5.28
2019-01-15T22:37:04.636Z,5.46
2019-01-15T22:40:43.707Z,5.39
2019-01-15T22:44:20.120Z,5.36
2019-01-15T22:47:55.070Z,5.36
2019-01-15T22:51:26.502Z,5.41
2019-01-15T22:55:06.960Z,5.45
2019-01-15T22:58:59.829Z,5.38
2019-01-15T23:06:18.814Z,5.33
2019-01-15T23:09:41.651Z,5.25
2019-01-15T23:13:17.759Z,5.27
2019-01-15T23:16:56.807Z,5.28
2019-01-15T23:20:27.365Z,5.16
2019-01-15T23:24:01.055Z,5.16
2019-01-15T23:27:31.640Z,5.03
2019-01-15T23:31:03.551Z,5.19
2019-01-15T23:34:28.778Z,5.04
2019-01-15T23:38:03.313Z,5.02
2019-01-15T23:41:35.228Z,4.98
2019-01-15T23:45:15.370Z,5.06
2019-01-15T23:48:58.259Z,5.17
2019-01-15T23:52:31.339Z,5.15
2019-01-15T23:56:03.262Z,5.22
2019-01-15T23:59:39.796Z,5.26
